Time;durP1;ratioP1;P1;durP2;ratioP2;P2;SDS_P1;SDS_P2;PMS_P1;PMS_P2;Temp;Humidity;BMP_temperature;BMP_pressure;BME280_temperature;BME280_humidity;BME280_pressure;Samples;Min_cycle;Max_cycle;Signal;HPM_P1;HPM_P2
2022/08/24 00:02:00;;;;;;;;;;;;;;;22.31;98.14;99184.28;4955015;29;1209;-60
2022/08/24 00:04:27;;;;;;;;;;;;;;;22.30;97.62;99179.19;4938190;29;824;-60
2022/08/24 00:07:01;;;;;;;;;;;;;;;22.32;97.01;99187.88;4955147;29;1986;-60
2022/08/24 00:09:31;;;;;;;;;;;;;;;22.33;96.66;99192.25;4954878;29;902;-60
2022/08/24 00:11:58;;;;;;;;;;;;;;;22.29;96.03;99195.28;4955025;29;928;-60
2022/08/24 00:14:25;;;;;;;;;;;;;;;22.24;95.99;99200.88;4954806;29;847;-60
2022/08/24 00:16:52;;;;;;;;;;;;;;;22.25;95.92;99194.72;4954566;29;871;-60
2022/08/24 00:19:18;;;;;;;;;;;;;;;22.26;95.52;99196.28;4937491;29;850;-60
2022/08/24 00:21:47;;;;;;;;;;;;;;;22.27;94.76;99194.22;4954579;29;868;-60
2022/08/24 00:24:13;;;;;;;;;;;;;;;22.39;93.50;99199.47;4954600;29;923;-59
2022/08/24 00:26:40;;;;;;;;;;;;;;;22.45;92.57;99201.53;4954526;29;1891;-59
2022/08/24 00:29:07;;;;;;;;;;;;;;;22.42;92.34;99203.31;4954550;29;840;-60
2022/08/24 00:31:36;;;;;;;;;;;;;;;22.34;92.12;99200.19;4954638;29;890;-60
2022/08/24 00:34:03;;;;;;;;;;;;;;;22.27;91.99;99194.22;4954214;28;843;-60
2022/08/24 00:36:45;;;;;;;;;;;;;;;22.25;92.08;99196.78;4954415;29;824;-59
2022/08/24 00:39:12;;;;;;;;;;;;;;;22.21;91.51;99200.56;4954323;29;924;-60
2022/08/24 00:41:41;;;;;;;;;;;;;;;22.26;90.67;99184.25;4954343;29;835;-60
2022/08/24 00:44:09;;;;;;;;;;;;;;;22.30;90.36;99190.44;4954340;29;807;-59
2022/08/24 00:46:42;;;;;;;;;;;;;;;22.30;90.04;99194.00;4953948;29;1954;-60
2022/08/24 00:52:39;;;;;;;;;;;;;;;22.46;87.65;99201.03;4954121;29;681;-60
2022/08/24 00:55:14;;;;;;;;;;;;;;;22.46;87.22;99189.03;4950442;29;1462;-60
2022/08/24 00:57:43;;;;;;;;;;;;;;;22.33;87.11;99192.25;4954234;29;898;-59
2022/08/24 01:00:12;;;;;;;;;;;;;;;22.24;87.71;99186.78;4954299;29;846;-60
2022/08/24 01:02:41;;;;;;;;;;;;;;;22.15;87.73;99185.66;4953384;29;1239;-60
2022/08/24 01:05:18;;;;;;;;;;;;;;;22.10;87.93;99177.94;4953943;29;913;-60
2022/08/24 01:07:48;;;;;;;;;;;;;;;22.01;88.10;99175.28;4953808;29;2301;-60
2022/08/24 01:10:18;;;;;;;;;;;;;;;21.93;88.46;99168.56;4954462;29;815;-59
2022/08/24 01:12:47;;;;;;;;;;;;;;;21.89;88.85;99174.41;4936554;29;1190;-60
2022/08/24 01:15:42;;;;;;;;;;;;;;;21.85;89.11;99171.06;4953707;29;947;-60
2022/08/24 01:21:19;;;;;;;;;;;;;;;21.84;88.87;99161.06;4954028;29;638;-60
2022/08/24 01:23:57;;;;;;;;;;;;;;;21.87;88.77;99153.66;4953665;29;914;-61
2022/08/24 01:26:31;;;;;;;;;;;;;;;21.88;88.52;99166.47;4953644;29;1890;-60
2022/08/24 01:29:09;;;;;;;;;;;;;;;21.90;88.30;99163.94;4953785;29;851;-59
2022/08/24 01:43:46;;;;;;;;;;;;;;;21.72;89.47;99142.50;4953833;29;706;-60
2022/08/24 01:52:20;;;;;;;;;;;;;;;21.57;90.71;99149.03;4957397;29;610;-60
2022/08/24 01:54:50;;;;;;;;;;;;;;;21.53;91.05;99147.69;4957177;29;899;-60
2022/08/24 01:57:18;;;;;;;;;;;;;;;21.44;91.38;99137.34;4957364;29;879;-60
2022/08/24 02:03:12;;;;;;;;;;;;;;;21.34;92.70;99147.97;4947361;29;1109;-62
2022/08/24 02:05:39;;;;;;;;;;;;;;;21.30;92.59;99147.41;4918874;29;1914;-59
2022/08/24 02:08:07;;;;;;;;;;;;;;;21.28;93.18;99140.72;4918986;29;874;-61
2022/08/24 02:10:34;;;;;;;;;;;;;;;21.27;93.18;99139.16;4918905;29;879;-59
2022/08/24 02:13:01;;;;;;;;;;;;;;;21.28;93.50;99143.53;4918784;29;940;-60
2022/08/24 02:15:36;;;;;;;;;;;;;;;21.33;93.22;99146.41;4918691;29;937;-60
2022/08/24 02:30:14;;;;;;;;;;;;;;;21.27;93.21;99131.50;4918933;29;622;-60
2022/08/24 02:32:41;;;;;;;;;;;;;;;21.26;93.31;99115.16;4918524;29;812;-61
2022/08/24 02:47:21;;;;;;;;;;;;;;;21.24;93.91;99064.28;4918465;29;1898;-60
2022/08/24 02:49:49;;;;;;;;;;;;;;;21.26;93.66;99062.53;4918230;29;973;-60
2022/08/24 03:04:28;;;;;;;;;;;;;;;21.30;94.18;99073.56;4941104;29;1360;-58
2022/08/24 03:06:54;;;;;;;;;;;;;;;21.28;94.30;99071.25;4956092;29;851;-60
2022/08/24 03:09:20;;;;;;;;;;;;;;;21.33;94.26;99078.94;4955935;29;909;-59
2022/08/24 03:11:48;;;;;;;;;;;;;;;21.37;94.32;99073.13;4955860;29;872;-60
2022/08/24 03:14:14;;;;;;;;;;;;;;;21.38;94.42;99074.69;4955717;29;932;-59
2022/08/24 03:28:57;;;;;;;;;;;;;;;21.45;94.70;99112.84;4956111;29;614;-60
2022/08/24 03:34:29;;;;;;;;;;;;;;;21.41;94.97;99105.38;4955548;29;648;-59
2022/08/24 03:36:55;;;;;;;;;;;;;;;21.43;95.16;99112.56;4955739;29;1961;-59
2022/08/24 03:51:49;;;;;;;;;;;;;;;21.82;94.33;99118.59;4914975;29;1363;-60
2022/08/24 03:54:19;;;;;;;;;;;;;;;21.85;93.34;99128.06;4915113;29;875;-59
2022/08/24 03:56:46;;;;;;;;;;;;;;;21.85;94.07;99139.31;4914889;29;1898;-59
2022/08/24 03:59:13;;;;;;;;;;;;;;;21.89;94.28;99149.09;4914833;29;899;-60
2022/08/24 04:01:39;;;;;;;;;;;;;;;21.91;94.35;99151.41;4914661;29;1091;-59
2022/08/24 04:04:04;;;;;;;;;;;;;;;21.91;94.12;99143.75;4914720;29;1280;-60
2022/08/24 04:06:30;;;;;;;;;;;;;;;21.94;94.42;99137.13;4914760;29;1007;-60
2022/08/24 04:08:56;;;;;;;;;;;;;;;21.95;93.64;99146.31;4914330;29;803;-60
2022/08/24 04:11:23;;;;;;;;;;;;;;;21.95;94.53;99140.69;4914827;29;932;-59
2022/08/24 04:13:51;;;;;;;;;;;;;;;22.03;93.91;99148.19;4914521;29;891;-60
2022/08/24 04:16:19;;;;;;;;;;;;;;;22.06;93.80;99154.88;4914454;29;1914;-59
2022/08/24 04:18:45;;;;;;;;;;;;;;;22.11;93.95;99154.16;4914519;29;828;-61
2022/08/24 04:21:23;;;;;;;;;;;;;;;22.21;93.90;99166.00;4914542;29;812;-59
2022/08/24 04:23:53;;;;;;;;;;;;;;;22.24;92.98;99153.03;4914528;29;808;-60
2022/08/24 04:26:21;;;;;;;;;;;;;;;22.30;92.96;99151.03;4914463;29;832;-60
2022/08/24 04:40:59;;;;;;;;;;;;;;;22.43;92.48;99177.50;4954819;29;614;-59
2022/08/24 04:43:28;;;;;;;;;;;;;;;22.44;93.32;99164.19;4954339;29;823;-61
2022/08/24 04:46:03;;;;;;;;;;;;;;;22.46;92.70;99166.50;4954620;29;830;-60
2022/08/24 05:00:55;;;;;;;;;;;;;;;22.61;91.90;99195.28;4954212;29;1040;-61
2022/08/24 05:03:33;;;;;;;;;;;;;;;22.65;91.65;99211.97;4954033;29;1437;-60
2022/08/24 05:06:00;;;;;;;;;;;;;;;22.68;91.21;99200.47;4953941;29;828;-60
2022/08/24 05:17:49;;;;;;;;;;;;;;;23.03;89.26;99188.94;4954035;29;1919;-59
2022/08/24 05:20:39;;;;;;;;;;;;;;;23.03;88.68;99186.13;4856611;29;1153;-60
2022/08/24 05:23:09;;;;;;;;;;;;;;;23.03;88.56;99200.22;4857445;29;881;-60
2022/08/24 05:25:36;;;;;;;;;;;;;;;23.02;88.79;99184.59;4857640;29;1073;-60
2022/08/24 05:28:01;;;;;;;;;;;;;;;23.03;88.29;99188.94;4857402;29;956;-60
2022/08/24 05:30:29;;;;;;;;;;;;;;;23.06;88.32;99187.16;4857276;29;928;-60
2022/08/24 05:32:58;;;;;;;;;;;;;;;23.10;88.26;99198.19;4857433;29;927;-60
2022/08/24 05:35:27;;;;;;;;;;;;;;;23.16;87.75;99202.59;4857489;29;804;-60
2022/08/24 05:37:55;;;;;;;;;;;;;;;23.22;87.01;99208.25;4857143;29;1915;-60
2022/08/24 05:52:33;;;;;;;;;;;;;;;23.95;82.13;99233.94;4857213;29;611;-60
2022/08/24 05:55:00;;;;;;;;;;;;;;;24.17;80.35;99226.81;4857154;29;879;-59
2022/08/24 05:57:31;;;;;;;;;;;;;;;24.35;78.50;99239.69;4894351;29;1895;-61
2022/08/24 06:00:03;;;;;;;;;;;;;;;24.57;77.70;99234.06;4953368;29;803;-59
2022/08/24 06:15:14;;;;;;;;;;;;;;;24.42;76.59;99247.66;4941285;29;1486;-59
2022/08/24 06:20:43;;;;;;;;;;;;;;;24.08;78.00;99241.94;4953395;29;626;-60
2022/08/24 06:23:12;;;;;;;;;;;;;;;23.96;79.04;99249.63;4953543;29;827;-59
2022/08/24 06:31:47;;;;;;;;;;;;;;;23.78;79.78;99247.25;4953962;28;610;-60
2022/08/24 06:34:15;;;;;;;;;;;;;;;23.77;80.03;99235.19;4939414;29;1723;-61
2022/08/24 06:36:42;;;;;;;;;;;;;;;23.73;79.68;99240.28;4956560;29;1939;-59
2022/08/24 06:39:10;;;;;;;;;;;;;;;23.71;79.99;99227.97;4956667;29;894;-61
2022/08/24 06:41:46;;;;;;;;;;;;;;;23.67;80.08;99211.28;4956523;29;860;-60
2022/08/24 06:44:15;;;;;;;;;;;;;;;23.66;80.12;99201.25;4956578;29;804;-60
2022/08/24 06:46:42;;;;;;;;;;;;;;;23.66;79.86;99226.63;4956425;29;910;-59
2022/08/24 06:49:08;;;;;;;;;;;;;;;23.72;79.76;99258.47;4956720;29;932;-59
2022/08/24 06:51:35;;;;;;;;;;;;;;;23.77;79.47;99271.09;4956297;29;1195;-58
2022/08/24 06:54:01;;;;;;;;;;;;;;;23.54;80.51;99282.25;4956493;29;799;-59
2022/08/24 06:56:43;;;;;;;;;;;;;;;22.91;84.16;99276.69;4956218;29;1945;-59
2022/08/24 07:11:21;;;;;;;;;;;;;;;23.46;82.67;99323.47;4956220;29;653;-58
2022/08/24 07:13:49;;;;;;;;;;;;;;;23.74;81.50;99349.00;4955935;29;887;-58
2022/08/24 07:16:22;;;;;;;;;;;;;;;24.03;80.15;99375.38;4955727;29;1973;-57
2022/08/24 07:18:49;;;;;;;;;;;;;;;24.22;78.62;99401.13;4956117;29;839;-57
2022/08/24 07:21:18;;;;;;;;;;;;;;;24.39;77.97;99418.13;4956034;29;913;-57
2022/08/24 07:23:46;;;;;;;;;;;;;;;24.62;77.20;99428.25;4955755;29;1082;-58
2022/08/24 07:26:17;;;;;;;;;;;;;;;24.83;76.53;99442.16;4955763;29;807;-57
2022/08/24 07:28:44;;;;;;;;;;;;;;;25.02;75.35;99450.94;4955623;29;916;-57
2022/08/24 07:31:12;;;;;;;;;;;;;;;25.17;74.58;99443.00;4955725;29;820;-58
2022/08/24 07:33:39;;;;;;;;;;;;;;;25.13;73.63;99444.53;4955525;29;859;-57
2022/08/24 07:36:06;;;;;;;;;;;;;;;25.02;73.14;99417.78;4955503;29;1890;-57
2022/08/24 07:38:32;;;;;;;;;;;;;;;25.02;73.52;99402.88;4955438;29;912;-58
2022/08/24 07:41:31;;;;;;;;;;;;;;;24.89;73.46;99360.97;4955257;29;947;-58
2022/08/24 07:43:58;;;;;;;;;;;;;;;24.70;73.52;99340.16;4954475;28;906;-58
2022/08/24 07:46:25;;;;;;;;;;;;;;;24.67;73.68;99349.66;4955320;29;911;-58
2022/08/24 07:48:51;;;;;;;;;;;;;;;24.58;73.32;99347.81;4955308;29;879;-58
2022/08/24 07:51:19;;;;;;;;;;;;;;;24.47;73.59;99342.91;4955248;29;836;-58
2022/08/24 07:53:46;;;;;;;;;;;;;;;24.37;73.58;99348.03;4955033;29;863;-58
2022/08/24 07:56:14;;;;;;;;;;;;;;;24.28;74.11;99370.06;4955017;29;1891;-58
2022/08/24 07:59:06;;;;;;;;;;;;;;;24.14;74.86;99375.41;4955032;29;951;-58
2022/08/24 08:13:45;;;;;;;;;;;;;;;21.84;90.61;99253.13;4895886;29;983;-60
2022/08/24 08:28:23;;;;;;;;;;;;;;;21.71;95.12;99208.47;4895597;29;603;-58
2022/08/24 08:30:51;;;;;;;;;;;;;;;22.15;91.30;99211.00;4879813;29;967;-58
2022/08/24 08:33:17;;;;;;;;;;;;;;;22.55;88.42;99254.38;4895366;29;918;-58
2022/08/24 08:35:43;;;;;;;;;;;;;;;22.92;86.98;99244.44;4895581;29;844;-58
2022/08/24 08:38:10;;;;;;;;;;;;;;;23.16;84.08;99215.91;4895456;29;1926;-58
2022/08/24 08:46:56;;;;;;;;;;;;;;;24.04;79.53;99168.03;4895221;29;631;-59
2022/08/24 08:49:42;;;;;;;;;;;;;;;24.21;77.39;99180.09;4895288;29;927;-59
2022/08/24 08:52:29;;;;;;;;;;;;;;;24.38;76.58;99171.63;4954147;29;891;-58
2022/08/24 08:54:59;;;;;;;;;;;;;;;24.51;75.37;99190.94;4953883;28;1057;-59
2022/08/24 09:00:52;;;;;;;;;;;;;;;24.72;73.39;99168.81;4954095;29;968;-59
2022/08/24 09:03:35;;;;;;;;;;;;;;;24.82;73.30;99198.34;4946252;29;1735;-58
2022/08/24 09:06:04;;;;;;;;;;;;;;;24.99;72.59;99201.16;4953814;29;864;-58
2022/08/24 09:21:09;;;;;;;;;;;;;;;26.77;65.89;99389.09;4915692;29;698;-58
2022/08/24 09:23:36;;;;;;;;;;;;;;;27.12;64.65;99403.81;4914389;29;1186;-58
2022/08/24 09:26:31;;;;;;;;;;;;;;;27.41;64.05;99417.25;4915490;29;920;-58
2022/08/24 10:01:16;;;;;;;;;;;;;;;29.30;55.41;99391.16;5740319;23;1680;-59
2022/08/24 10:03:43;;;;;;;;;;;;;;;28.84;56.06;99370.41;4934313;29;874;-59
2022/08/24 10:06:28;;;;;;;;;;;;;;;28.32;56.73;99368.81;4934315;29;803;-58
2022/08/24 10:09:03;;;;;;;;;;;;;;;27.97;57.59;99352.72;4936707;29;1324;-59
2022/08/24 10:11:38;;;;;;;;;;;;;;;27.89;58.07;99347.66;4938067;29;799;-59
2022/08/24 10:14:23;;;;;;;;;;;;;;;27.74;58.40;99341.59;4938384;29;760;-58
2022/08/24 10:16:52;;;;;;;;;;;;;;;27.49;59.54;99333.09;4937806;29;1982;-59
2022/08/24 10:19:55;;;;;;;;;;;;;;;27.20;60.06;99322.50;4938171;29;803;-59
2022/08/24 10:22:44;;;;;;;;;;;;;;;26.80;60.64;99291.69;4863478;29;1100;-59
2022/08/24 10:25:26;;;;;;;;;;;;;;;26.44;61.02;99266.16;4934379;28;1374;-61
2022/08/24 10:28:01;;;;;;;;;;;;;;;26.39;62.25;99258.44;4937684;29;854;-61
2022/08/24 10:30:45;;;;;;;;;;;;;;;26.31;61.76;99237.66;4937563;29;933;-59
2022/08/24 10:33:22;;;;;;;;;;;;;;;26.14;61.83;99225.66;4937654;29;824;-59
2022/08/24 10:36:06;;;;;;;;;;;;;;;25.96;62.60;99219.34;4936232;29;1321;-61
2022/08/24 10:41:51;;;;;;;;;;;;;;;24.73;68.32;99257.19;4937427;29;686;-61
2022/08/24 10:44:17;;;;;;;;;;;;;;;24.87;68.41;99290.06;4936144;29;1341;-60
2022/08/24 10:47:12;;;;;;;;;;;;;;;25.23;67.03;99304.47;4937472;29;859;-61
2022/08/24 10:49:54;;;;;;;;;;;;;;;25.70;65.54;99326.47;4919298;29;1101;-61
2022/08/24 10:55:35;;;;;;;;;;;;;;;26.16;64.29;99347.69;4937538;29;677;-61
2022/08/24 10:58:15;;;;;;;;;;;;;;;26.32;64.24;99329.06;4937337;29;1894;-60
2022/08/24 11:00:42;;;;;;;;;;;;;;;27.30;62.15;99320.91;4937295;29;975;-60
2022/08/24 11:03:17;;;;;;;;;;;;;;;28.57;58.75;99301.31;4971069;28;1302;-60
2022/08/24 11:05:48;;;;;;;;;;;;;;;29.05;56.61;99308.00;4975486;28;898;-60
2022/08/24 11:08:19;;;;;;;;;;;;;;;29.01;55.10;99310.41;4975310;28;1079;-60
2022/08/24 11:10:46;;;;;;;;;;;;;;;28.88;55.23;99308.28;4976079;28;811;-60
2022/08/24 11:13:23;;;;;;;;;;;;;;;28.80;55.31;99289.56;4975697;28;788;-60
2022/08/24 11:15:53;;;;;;;;;;;;;;;28.48;56.01;99264.72;4975283;28;885;-60
2022/08/24 11:18:19;;;;;;;;;;;;;;;28.07;56.66;99260.91;4973938;28;1969;-60
2022/08/24 11:20:47;;;;;;;;;;;;;;;27.78;58.14;99253.28;4975123;28;858;-61
2022/08/24 11:23:21;;;;;;;;;;;;;;;27.53;58.92;99236.31;4975124;28;815;-61
2022/08/24 11:25:59;;;;;;;;;;;;;;;27.31;59.88;99202.50;4975058;28;803;-61
2022/08/24 11:28:32;;;;;;;;;;;;;;;27.06;60.05;99177.00;4974964;28;1248;-60
2022/08/24 11:30:59;;;;;;;;;;;;;;;26.87;60.83;99151.41;4974900;28;862;-60
2022/08/24 11:33:30;;;;;;;;;;;;;;;26.78;59.85;99134.75;4974988;28;835;-61
2022/08/24 11:35:56;;;;;;;;;;;;;;;26.69;60.04;99133.03;4974892;28;800;-61
2022/08/24 11:38:27;;;;;;;;;;;;;;;26.61;59.74;99132.88;4974842;28;832;-61
2022/08/24 11:41:07;;;;;;;;;;;;;;;26.65;59.74;99138.22;4974987;28;783;-60
2022/08/24 11:43:32;;;;;;;;;;;;;;;26.74;59.56;99131.47;4974772;28;791;-60
2022/08/24 11:46:01;;;;;;;;;;;;;;;26.78;59.21;99127.03;4957426;28;1292;-60
2022/08/24 11:48:34;;;;;;;;;;;;;;;26.81;59.25;99145.03;4974640;28;905;-60
2022/08/24 11:51:07;;;;;;;;;;;;;;;26.85;59.03;99154.78;4975378;28;812;-60
2022/08/24 11:53:55;;;;;;;;;;;;;;;26.95;58.17;99208.28;4957261;28;1315;-60
2022/08/24 11:56:34;;;;;;;;;;;;;;;27.24;57.93;99267.06;4974483;28;1890;-60
2022/08/24 11:59:19;;;;;;;;;;;;;;;27.64;57.29;99283.66;4974539;28;897;-60
2022/08/24 12:05:13;;;;;;;;;;;;;;;28.96;53.81;99327.59;4974291;28;1445;-60
2022/08/24 12:07:48;;;;;;;;;;;;;;;29.76;52.76;99331.34;4933914;28;1401;-60
2022/08/24 12:10:34;;;;;;;;;;;;;;;30.18;50.98;99325.06;4974422;28;811;-60
2022/08/24 12:13:17;;;;;;;;;;;;;;;30.33;49.05;99336.66;4956786;28;1201;-60
2022/08/24 12:15:55;;;;;;;;;;;;;;;30.54;49.42;99333.88;4974167;28;858;-60
2022/08/24 12:18:27;;;;;;;;;;;;;;;31.21;48.10;99325.75;4974091;28;1968;-60
2022/08/24 12:20:55;;;;;;;;;;;;;;;31.40;47.10;99319.06;4974127;28;835;-60
2022/08/24 12:26:45;;;;;;;;;;;;;;;31.17;46.77;99308.22;4953461;28;1125;-60
2022/08/24 12:29:20;;;;;;;;;;;;;;;31.27;46.79;99294.97;4973695;28;846;-60
2022/08/24 12:32:09;;;;;;;;;;;;;;;31.21;46.54;99290.75;4973776;28;839;-60
2022/08/24 12:34:50;;;;;;;;;;;;;;;31.40;45.24;99279.09;4973873;28;835;-60
2022/08/24 12:37:38;;;;;;;;;;;;;;;31.63;44.96;99285.72;4973906;28;1890;-60
2022/08/24 12:40:24;;;;;;;;;;;;;;;31.58;44.36;99277.31;4973701;28;878;-60
2022/08/24 12:43:09;;;;;;;;;;;;;;;31.46;44.34;99277.63;4973819;28;800;-60
2022/08/24 12:45:35;;;;;;;;;;;;;;;31.46;43.88;99274.00;4973559;28;850;-60
2022/08/24 13:00:16;;;;;;;;;;;;;;;30.03;46.03;99280.06;4973555;28;1199;-61
2022/08/24 13:02:44;;;;;;;;;;;;;;;29.59;47.58;99276.78;4966282;28;1335;-62
2022/08/24 13:05:16;;;;;;;;;;;;;;;29.28;48.20;99279.97;4973277;28;811;-61
2022/08/24 13:07:48;;;;;;;;;;;;;;;29.16;48.74;99277.88;4973203;28;882;-60
2022/08/24 13:10:19;;;;;;;;;;;;;;;29.07;48.97;99276.94;4973369;28;1164;-60
2022/08/24 13:12:52;;;;;;;;;;;;;;;29.08;49.02;99269.97;4955807;28;1226;-61
2022/08/24 13:15:31;;;;;;;;;;;;;;;29.06;49.09;99263.25;4973164;28;898;-61
2022/08/24 13:17:59;;;;;;;;;;;;;;;29.00;49.06;99252.00;4955665;28;1915;-61
2022/08/24 13:20:29;;;;;;;;;;;;;;;28.96;49.11;99245.88;4973060;28;815;-60
2022/08/24 13:23:12;;;;;;;;;;;;;;;29.02;49.11;99242.91;4973104;28;795;-61
2022/08/24 13:25:49;;;;;;;;;;;;;;;29.02;49.23;99234.38;4972911;28;1095;-61
2022/08/24 13:28:38;;;;;;;;;;;;;;;29.02;49.00;99238.00;4972818;28;1108;-60
2022/08/24 13:31:15;;;;;;;;;;;;;;;29.06;48.84;99234.81;4955558;28;1315;-61
2022/08/24 13:46:00;;;;;;;;;;;;;;;29.41;47.91;99164.59;4973154;28;594;-60
2022/08/24 13:48:43;;;;;;;;;;;;;;;29.45;47.82;99159.34;4972748;28;1138;-60
2022/08/24 13:51:25;;;;;;;;;;;;;;;29.42;47.62;99157.56;4972785;28;818;-61
2022/08/24 13:54:11;;;;;;;;;;;;;;;29.47;47.99;99148.91;4972705;28;1209;-60
2022/08/24 13:56:45;;;;;;;;;;;;;;;29.47;47.82;99143.22;4955157;28;1895;-60
2022/08/24 13:59:35;;;;;;;;;;;;;;;29.43;47.91;99139.94;4972660;28;922;-60
2022/08/24 14:02:03;;;;;;;;;;;;;;;29.38;47.88;99120.94;4955227;28;1320;-61
2022/08/24 14:04:35;;;;;;;;;;;;;;;29.31;47.79;99110.19;4972679;28;890;-61
2022/08/24 14:19:20;;;;;;;;;;;;;;;29.25;47.86;99095.31;4972623;28;696;-60
2022/08/24 14:34:18;;;;;;;;;;;;;;;28.79;49.06;99101.13;4972752;28;598;-61
2022/08/24 14:39:51;;;;;;;;;;;;;;;28.56;49.31;99100.03;4960247;28;1116;-60
2022/08/24 14:42:31;;;;;;;;;;;;;;;28.50;49.37;99100.88;4972326;28;1263;-61
2022/08/24 14:45:01;;;;;;;;;;;;;;;28.47;49.66;99104.78;4955044;28;799;-60
2022/08/24 14:50:38;;;;;;;;;;;;;;;28.41;49.86;99100.53;4972271;28;606;-60
2022/08/24 14:53:24;;;;;;;;;;;;;;;28.36;49.92;99104.22;4956144;28;1210;-60
2022/08/24 14:56:14;;;;;;;;;;;;;;;28.31;49.66;99105.84;4975908;28;858;-60
2022/08/24 14:58:44;;;;;;;;;;;;;;;28.34;49.96;99106.88;4975605;28;792;-60
2022/08/24 15:01:12;;;;;;;;;;;;;;;28.36;49.75;99104.22;4975691;28;892;-61
2022/08/24 15:03:57;;;;;;;;;;;;;;;28.41;49.59;99121.19;4975245;28;1381;-60
2022/08/24 15:06:41;;;;;;;;;;;;;;;28.49;49.60;99122.09;4958144;28;1288;-60
2022/08/24 15:09:27;;;;;;;;;;;;;;;28.55;49.31;99116.31;4975684;28;874;-61
2022/08/24 15:12:04;;;;;;;;;;;;;;;28.60;49.17;99123.22;4975315;28;898;-61
2022/08/24 15:14:35;;;;;;;;;;;;;;;28.60;48.93;99128.91;4975356;28;792;-61
2022/08/24 15:17:06;;;;;;;;;;;;;;;28.58;48.80;99140.03;4975143;28;1973;-60
2022/08/24 15:31:55;;;;;;;;;;;;;;;28.22;49.33;99135.44;4975337;28;677;-61
2022/08/24 15:34:44;;;;;;;;;;;;;;;28.17;49.27;99141.22;4975059;28;839;-61
